Time;durP1;ratioP1;P1;durP2;ratioP2;P2;SDS_P1;SDS_P2;PMS_P1;PMS_P2;Temp;Humidity;BMP_temperature;BMP_pressure;BME280_temperature;BME280_humidity;BME280_pressure;Samples;Min_cycle;Max_cycle;Signal;HPM_P1;HPM_P2
2021/01/15 00:01:02;;;;;;;1.80;1.20;;;20.60;42.20;;;;;;4952958;28;20115;-66
2021/01/15 00:03:31;;;;;;;1.27;0.90;;;20.60;41.50;;;;;;4953764;28;20059;-65
2021/01/15 00:05:57;;;;;;;2.20;1.10;;;20.60;41.40;;;;;;4964876;28;20034;-69
2021/01/15 00:08:22;;;;;;;1.42;1.00;;;20.60;41.40;;;;;;4959037;28;20030;-65
2021/01/15 00:10:48;;;;;;;1.90;1.20;;;20.60;41.30;;;;;;4953490;29;20465;-65
2021/01/15 00:13:14;;;;;;;3.03;1.20;;;20.60;41.30;;;;;;4964932;28;20027;-65
2021/01/15 00:15:39;;;;;;;1.30;0.93;;;20.60;41.30;;;;;;4960469;28;20199;-65
2021/01/15 00:18:05;;;;;;;3.17;1.10;;;20.60;41.30;;;;;;4951388;28;20050;-65
2021/01/15 00:20:30;;;;;;;2.80;1.00;;;20.60;41.30;;;;;;4951906;29;20484;-65
2021/01/15 00:22:56;;;;;;;1.98;1.17;;;20.60;41.30;;;;;;4950893;29;20023;-70
2021/01/15 00:25:22;;;;;;;1.70;1.05;;;20.60;41.30;;;;;;4951395;29;20061;-65
2021/01/15 00:27:47;;;;;;;1.27;0.93;;;20.60;41.20;;;;;;4952574;28;20519;-67
2021/01/15 00:30:13;;;;;;;3.17;1.10;;;20.60;41.20;;;;;;4956293;28;20463;-65
2021/01/15 00:32:39;;;;;;;1.75;1.00;;;20.60;41.20;;;;;;4956204;28;20478;-65
2021/01/15 00:35:07;;;;;;;1.20;0.95;;;20.60;41.20;;;;;;4954959;28;20031;-65
2021/01/15 00:37:36;;;;;;;2.22;1.20;;;20.60;41.10;;;;;;4955326;29;20035;-65
2021/01/15 00:40:02;;;;;;;1.65;1.05;;;20.60;41.20;;;;;;4954996;28;20417;-65
2021/01/15 00:42:28;;;;;;;1.77;1.08;;;20.60;41.20;;;;;;4957034;28;20023;-65
2021/01/15 00:44:55;;;;;;;2.15;1.15;;;20.60;41.10;;;;;;4955139;29;20038;-66
2021/01/15 00:47:22;;;;;;;2.15;0.90;;;20.60;41.00;;;;;;4955221;28;20468;-65
2021/01/15 00:49:48;;;;;;;2.55;0.93;;;20.60;41.00;;;;;;4955267;28;20035;-65
2021/01/15 00:52:16;;;;;;;3.08;1.05;;;20.60;41.00;;;;;;4954778;28;20921;-65
2021/01/15 00:54:41;;;;;;;3.33;1.02;;;20.60;41.00;;;;;;4955139;28;20088;-66
2021/01/15 00:57:07;;;;;;;1.95;1.00;;;20.60;41.00;;;;;;4954790;28;20067;-65
2021/01/15 00:59:33;;;;;;;2.47;1.13;;;20.60;41.00;;;;;;4954633;28;20039;-66
2021/01/15 01:02:00;;;;;;;1.33;0.88;;;20.60;41.00;;;;;;4955767;29;20019;-66
2021/01/15 01:04:26;;;;;;;5.05;1.10;;;20.60;41.00;;;;;;4955578;28;20035;-67
2021/01/15 01:06:52;;;;;;;3.70;1.00;;;20.60;41.00;;;;;;4955354;28;20019;-65
2021/01/15 01:09:17;;;;;;;1.98;0.93;;;20.60;41.00;;;;;;4954361;29;20077;-66
2021/01/15 01:11:43;;;;;;;1.70;1.00;;;20.60;41.00;;;;;;4955695;28;20098;-65
2021/01/15 01:14:08;;;;;;;2.17;1.02;;;20.60;41.00;;;;;;4955782;28;20035;-66
2021/01/15 01:16:35;;;;;;;2.17;1.00;;;20.60;41.00;;;;;;4955141;29;20027;-65
2021/01/15 01:19:02;;;;;;;1.77;0.90;;;20.60;40.80;;;;;;4954489;28;20051;-66
2021/01/15 01:21:28;;;;;;;2.22;0.90;;;20.60;40.80;;;;;;4954215;28;20059;-67
2021/01/15 01:23:54;;;;;;;1.38;0.80;;;20.60;41.50;;;;;;4954207;28;20027;-66
2021/01/15 01:26:20;;;;;;;2.22;0.90;;;20.60;40.80;;;;;;4954563;28;20111;-66
2021/01/15 01:28:46;;;;;;;1.85;0.80;;;20.60;40.80;;;;;;4955330;28;20019;-65
2021/01/15 01:31:13;;;;;;;1.48;0.90;;;20.60;40.80;;;;;;4954137;28;20027;-65
2021/01/15 01:33:40;;;;;;;2.00;0.90;;;20.60;40.80;;;;;;4954840;28;20031;-65
2021/01/15 01:36:07;;;;;;;1.48;0.90;;;20.60;40.80;;;;;;4952801;29;20019;-65
2021/01/15 01:38:33;;;;;;;2.38;1.20;;;20.60;40.80;;;;;;4955306;28;20072;-66
2021/01/15 01:40:58;;;;;;;2.20;1.17;;;20.60;40.80;;;;;;4952806;28;20024;-68
2021/01/15 01:43:24;;;;;;;1.77;0.80;;;20.60;40.70;;;;;;4954817;28;20027;-66
2021/01/15 01:45:50;;;;;;;1.65;0.70;;;20.60;40.70;;;;;;4954610;28;20039;-66
2021/01/15 01:48:18;;;;;;;1.42;0.88;;;20.60;40.70;;;;;;4954020;28;20349;-66
2021/01/15 01:50:46;;;;;;;2.25;0.90;;;20.60;40.60;;;;;;4953411;29;20400;-66
2021/01/15 01:53:14;;;;;;;2.25;0.80;;;20.60;40.70;;;;;;4954291;28;20031;-66
2021/01/15 01:55:41;;;;;;;1.25;0.90;;;20.60;40.60;;;;;;4955843;28;20082;-66
2021/01/15 01:58:07;;;;;;;1.38;0.80;;;20.60;40.60;;;;;;4955141;28;20097;-66
2021/01/15 02:00:36;;;;;;;2.55;0.90;;;20.60;40.70;;;;;;4955714;28;20039;-65
2021/01/15 02:03:03;;;;;;;2.30;0.82;;;20.60;40.60;;;;;;4955243;28;20027;-68
2021/01/15 02:05:28;;;;;;;1.23;0.75;;;20.60;40.60;;;;;;4955698;28;20031;-66
2021/01/15 02:07:54;;;;;;;1.50;0.80;;;20.60;40.60;;;;;;4954416;29;20031;-67
2021/01/15 02:10:28;;;;;;;1.65;0.88;;;20.60;40.60;;;;;;4953664;28;20480;-66
2021/01/15 02:13:14;;;;;;;1.58;0.95;;;20.60;40.60;;;;;;4952521;29;20448;-65
2021/01/15 02:15:54;;;;;;;1.73;0.98;;;20.60;40.50;;;;;;4952734;29;20042;-65
2021/01/15 02:18:25;;;;;;;1.35;0.88;;;20.60;40.60;;;;;;4947188;28;20039;-65
2021/01/15 02:21:21;;;;;;;2.05;0.88;;;20.60;40.40;;;;;;4951485;29;20082;-67
2021/01/15 02:23:48;;;;;;;1.63;0.90;;;20.60;40.40;;;;;;4953267;29;20456;-67
2021/01/15 02:26:41;;;;;;;1.55;0.82;;;20.60;40.50;;;;;;4953038;28;20057;-67
2021/01/15 02:29:16;;;;;;;2.13;1.08;;;20.60;40.40;;;;;;4952771;29;20054;-65
2021/01/15 02:31:45;;;;;;;2.67;0.98;;;20.60;40.40;;;;;;4950553;28;20081;-67
2021/01/15 02:34:41;;;;;;;1.67;1.05;;;20.60;40.40;;;;;;4950720;29;20036;-65
2021/01/15 02:37:18;;;;;;;0.95;0.73;;;20.60;40.30;;;;;;4952809;29;20114;-66
2021/01/15 02:40:17;;;;;;;2.45;1.17;;;20.60;40.40;;;;;;4953684;28;20043;-65
2021/01/15 02:42:43;;;;;;;1.77;0.90;;;20.60;40.40;;;;;;4952994;29;20019;-66
2021/01/15 02:45:11;;;;;;;1.00;0.75;;;20.60;40.30;;;;;;4950267;29;20110;-66
2021/01/15 02:48:04;;;;;;;1.20;0.70;;;20.60;40.30;;;;;;4953684;28;20035;-66
2021/01/15 02:50:30;;;;;;;1.50;0.93;;;20.60;40.30;;;;;;4951077;29;20035;-66
2021/01/15 02:52:59;;;;;;;1.65;0.85;;;20.60;40.30;;;;;;4951526;28;20099;-65
2021/01/15 02:55:25;;;;;;;1.15;0.70;;;20.60;40.90;;;;;;4952000;29;20043;-66
2021/01/15 02:57:51;;;;;;;1.55;0.80;;;20.60;40.30;;;;;;4952210;29;20357;-66
2021/01/15 03:00:21;;;;;;;1.77;0.73;;;20.60;40.20;;;;;;4952526;28;20031;-67
2021/01/15 03:03:26;;;;;;;1.70;0.90;;;20.60;40.10;;;;;;4954014;28;20448;-66
2021/01/15 03:06:15;;;;;;;2.05;0.80;;;20.60;40.20;;;;;;4948968;29;20697;-66
2021/01/15 03:08:43;;;;;;;1.90;0.90;;;20.60;40.20;;;;;;4952050;29;20046;-66
2021/01/15 03:11:09;;;;;;;2.63;0.85;;;20.60;40.20;;;;;;4953946;28;20086;-66
2021/01/15 03:13:36;;;;;;;1.40;0.63;;;20.60;40.20;;;;;;4952308;28;20469;-67
2021/01/15 03:16:04;;;;;;;2.38;0.95;;;20.60;40.10;;;;;;4951881;28;20055;-67
2021/01/15 03:18:31;;;;;;;2.00;0.65;;;20.60;40.10;;;;;;4949911;29;20058;-65
2021/01/15 03:21:03;;;;;;;1.90;0.68;;;20.60;40.00;;;;;;4954372;28;20109;-68
2021/01/15 03:23:36;;;;;;;1.38;0.80;;;20.60;40.10;;;;;;4948923;29;20031;-66
2021/01/15 03:26:02;;;;;;;1.23;0.70;;;20.60;40.00;;;;;;4952984;28;20074;-66
2021/01/15 03:28:28;;;;;;;2.80;1.05;;;20.60;40.10;;;;;;4954315;28;20066;-66
2021/01/15 03:30:53;;;;;;;2.28;0.75;;;20.60;40.00;;;;;;4954334;28;20054;-66
2021/01/15 03:33:19;;;;;;;1.48;0.73;;;20.60;40.00;;;;;;4968134;28;20114;-65
2021/01/15 03:35:45;;;;;;;2.20;0.73;;;20.60;40.00;;;;;;4973336;28;20490;-66
2021/01/15 03:38:12;;;;;;;2.80;1.00;;;20.60;40.00;;;;;;4972494;28;20026;-66
2021/01/15 03:40:42;;;;;;;1.38;0.70;;;20.60;39.90;;;;;;4960401;28;20383;-66
2021/01/15 03:43:22;;;;;;;1.33;0.77;;;20.60;39.90;;;;;;4952972;28;20027;-66
2021/01/15 03:45:49;;;;;;;1.45;0.80;;;20.60;39.90;;;;;;4954005;28;20113;-66
2021/01/15 03:48:16;;;;;;;0.68;0.68;;;20.60;39.90;;;;;;4952959;28;20496;-66
2021/01/15 03:50:43;;;;;;;1.65;0.60;;;20.60;39.90;;;;;;4952675;28;20044;-69
2021/01/15 03:53:09;;;;;;;3.03;0.70;;;20.60;39.90;;;;;;4952279;28;20035;-66
2021/01/15 03:55:35;;;;;;;1.80;0.90;;;20.60;39.80;;;;;;4953430;28;20094;-67
2021/01/15 03:58:00;;;;;;;1.30;0.80;;;20.60;39.80;;;;;;4953483;28;20396;-69
2021/01/15 04:00:26;;;;;;;1.27;0.60;;;20.60;39.90;;;;;;4953252;28;20046;-66
2021/01/15 04:02:52;;;;;;;1.02;0.70;;;20.60;39.80;;;;;;4952136;29;20067;-66
2021/01/15 04:05:18;;;;;;;1.92;0.80;;;20.60;39.80;;;;;;4952484;29;20062;-67
2021/01/15 04:07:44;;;;;;;1.83;0.75;;;20.60;39.80;;;;;;4953695;29;20110;-66
2021/01/15 04:10:12;;;;;;;2.55;0.80;;;20.60;39.70;;;;;;4952793;28;20027;-66
2021/01/15 04:12:38;;;;;;;0.98;0.80;;;20.70;39.90;;;;;;4953473;28;20501;-67
2021/01/15 04:15:11;;;;;;;1.30;0.70;;;20.70;39.80;;;;;;4952984;28;20039;-66
2021/01/15 04:17:37;;;;;;;3.35;0.90;;;20.60;39.70;;;;;;4953198;28;20031;-68
2021/01/15 04:20:08;;;;;;;2.22;0.93;;;20.70;39.70;;;;;;4953311;28;20481;-67
2021/01/15 04:22:42;;;;;;;3.22;1.20;;;20.60;39.70;;;;;;4933675;29;20036;-66
2021/01/15 04:25:09;;;;;;;1.52;0.80;;;20.60;39.70;;;;;;4933569;29;20390;-66
2021/01/15 04:27:36;;;;;;;2.20;0.65;;;20.70;39.70;;;;;;4933263;29;20086;-66
2021/01/15 04:30:05;;;;;;;2.00;0.90;;;20.70;39.70;;;;;;4946109;29;20024;-70
2021/01/15 04:32:32;;;;;;;1.35;0.75;;;20.70;39.70;;;;;;4953648;28;20046;-66
2021/01/15 04:34:58;;;;;;;1.30;0.70;;;20.60;39.60;;;;;;4953555;28;20031;-66
2021/01/15 04:37:24;;;;;;;2.63;0.77;;;20.60;39.60;;;;;;4952479;28;20031;-67
2021/01/15 04:39:50;;;;;;;3.28;0.90;;;20.70;39.70;;;;;;4953150;29;20038;-66
2021/01/15 04:42:17;;;;;;;1.25;0.60;;;20.70;39.60;;;;;;4952766;28;20450;-66
2021/01/15 04:44:45;;;;;;;1.00;0.63;;;20.60;39.60;;;;;;4953432;28;20035;-66
2021/01/15 04:47:11;;;;;;;2.05;1.00;;;20.60;39.60;;;;;;4955309;28;20026;-66
2021/01/15 04:49:39;;;;;;;1.83;0.88;;;20.60;39.60;;;;;;4971330;28;20078;-66
2021/01/15 04:52:12;;;;;;;2.13;0.70;;;20.60;39.60;;;;;;4971577;28;20069;-67
2021/01/15 04:54:46;;;;;;;1.48;0.88;;;20.70;39.60;;;;;;4972693;28;20046;-66
2021/01/15 04:57:13;;;;;;;1.13;0.82;;;20.60;39.60;;;;;;4962554;28;20097;-67
2021/01/15 04:59:39;;;;;;;2.30;0.80;;;20.70;39.60;;;;;;4953375;28;20024;-66
2021/01/15 05:02:09;;;;;;;1.23;0.70;;;20.70;39.60;;;;;;4952984;29;20042;-67
2021/01/15 05:04:35;;;;;;;1.23;0.80;;;20.70;39.60;;;;;;4953305;28;20077;-67
2021/01/15 05:07:04;;;;;;;1.42;0.73;;;20.70;39.50;;;;;;4952609;28;20400;-70
2021/01/15 05:09:40;;;;;;;1.70;0.93;;;20.70;39.50;;;;;;4954230;28;20082;-67
2021/01/15 05:12:13;;;;;;;1.05;0.73;;;20.70;39.60;;;;;;4952541;29;20090;-67
2021/01/15 05:14:42;;;;;;;1.70;0.80;;;20.70;39.60;;;;;;4953251;28;20036;-67
2021/01/15 05:17:08;;;;;;;1.60;1.08;;;20.70;39.50;;;;;;4956851;28;20034;-67
2021/01/15 05:19:38;;;;;;;1.92;0.98;;;20.70;39.50;;;;;;4975487;28;20095;-66
2021/01/15 05:22:04;;;;;;;1.75;0.70;;;20.60;39.50;;;;;;4975283;28;20098;-68
2021/01/15 05:24:30;;;;;;;1.25;0.90;;;20.70;39.50;;;;;;4976255;28;20062;-67
2021/01/15 05:26:56;;;;;;;1.20;0.77;;;20.70;39.50;;;;;;4969403;28;20054;-68
2021/01/15 05:29:21;;;;;;;0.85;0.50;;;20.70;39.50;;;;;;4955780;29;20019;-67
2021/01/15 05:31:55;;;;;;;0.93;0.70;;;20.70;39.50;;;;;;4963631;28;20026;-67
2021/01/15 05:34:23;;;;;;;0.82;0.57;;;20.70;39.50;;;;;;4961200;28;20535;-67
2021/01/15 05:36:49;;;;;;;1.40;0.70;;;20.60;39.40;;;;;;4956425;28;20024;-69
2021/01/15 05:39:27;;;;;;;2.00;0.80;;;20.70;39.50;;;;;;4955002;28;20055;-66
2021/01/15 05:42:02;;;;;;;1.42;0.65;;;20.70;39.40;;;;;;4956187;28;20035;-66
2021/01/15 05:44:32;;;;;;;1.60;0.77;;;20.70;39.50;;;;;;4956012;28;20058;-66
2021/01/15 05:47:00;;;;;;;1.52;0.70;;;20.70;39.30;;;;;;4970104;28;20507;-66
2021/01/15 05:49:26;;;;;;;2.13;0.88;;;20.70;39.40;;;;;;4964997;28;20038;-66
2021/01/15 05:51:52;;;;;;;1.80;0.85;;;20.70;39.40;;;;;;4956462;28;20042;-66
2021/01/15 05:54:32;;;;;;;1.17;0.75;;;20.70;39.40;;;;;;4970058;28;20043;-66
2021/01/15 05:56:59;;;;;;;1.63;0.77;;;20.70;39.30;;;;;;4955557;28;20050;-67
2021/01/15 05:59:25;;;;;;;1.45;0.65;;;20.70;39.40;;;;;;4954664;28;20031;-66
2021/01/15 06:01:58;;;;;;;1.30;0.65;;;20.70;39.40;;;;;;4955995;28;20098;-66
2021/01/15 06:04:33;;;;;;;2.65;1.10;;;20.70;39.30;;;;;;4954924;28;20023;-66
2021/01/15 06:07:10;;;;;;;1.40;0.95;;;20.70;39.30;;;;;;4955828;28;20031;-67
2021/01/15 06:09:41;;;;;;;1.23;0.88;;;20.70;39.40;;;;;;4955221;29;20035;-66
2021/01/15 06:12:09;;;;;;;1.10;0.80;;;20.70;39.20;;;;;;4954350;28;20842;-67
2021/01/15 06:14:48;;;;;;;1.75;0.93;;;20.70;39.20;;;;;;4954300;29;20050;-66
2021/01/15 06:17:15;;;;;;;1.35;0.75;;;20.70;39.30;;;;;;4961426;28;20060;-66
2021/01/15 06:19:50;;;;;;;1.00;0.60;;;20.70;39.30;;;;;;4963631;28;20051;-66
2021/01/15 06:22:25;;;;;;;0.82;0.60;;;20.70;39.40;;;;;;4954712;28;20082;-66
2021/01/15 06:25:05;;;;;;;1.15;0.77;;;20.70;39.30;;;;;;4955446;28;20077;-66
2021/01/15 06:27:42;;;;;;;1.77;0.90;;;20.70;39.30;;;;;;4954779;28;20424;-66
2021/01/15 06:30:08;;;;;;;1.30;0.70;;;20.70;39.20;;;;;;4968417;28;20030;-67
2021/01/15 06:32:34;;;;;;;1.75;1.00;;;20.70;39.20;;;;;;4974764;28;20027;-66
2021/01/15 06:34:59;;;;;;;2.05;0.77;;;20.70;39.10;;;;;;4974220;28;20396;-66
2021/01/15 06:37:25;;;;;;;1.52;0.80;;;20.70;39.20;;;;;;4956282;28;20106;-67
2021/01/15 06:40:11;;;;;;;2.42;0.90;;;20.70;39.10;;;;;;4953898;29;20027;-67
2021/01/15 06:42:47;;;;;;;1.50;0.82;;;20.70;39.20;;;;;;4955166;28;20389;-67
2021/01/15 06:45:14;;;;;;;1.50;0.85;;;20.70;39.20;;;;;;4954223;28;20373;-66
2021/01/15 06:47:44;;;;;;;1.95;1.08;;;20.70;39.20;;;;;;4956423;28;20089;-66
2021/01/15 06:50:17;;;;;;;1.80;0.63;;;20.70;39.30;;;;;;4953782;28;20039;-67
2021/01/15 06:52:48;;;;;;;1.20;0.60;;;20.70;39.20;;;;;;4954637;29;20021;-67
2021/01/15 06:55:16;;;;;;;1.02;0.80;;;20.70;39.10;;;;;;4951373;29;20043;-67
2021/01/15 06:57:46;;;;;;;0.98;0.82;;;20.70;39.10;;;;;;4953892;28;20524;-67
2021/01/15 07:00:20;;;;;;;2.45;1.00;;;20.70;39.20;;;;;;4950098;28;20023;-67
2021/01/15 07:03:04;;;;;;;1.95;0.88;;;20.70;39.10;;;;;;4950570;28;20085;-67
2021/01/15 07:05:40;;;;;;;1.52;0.80;;;20.70;39.20;;;;;;4953880;28;20105;-67
2021/01/15 07:08:10;;;;;;;2.85;0.93;;;20.70;39.10;;;;;;4953511;28;20031;-67
2021/01/15 07:10:37;;;;;;;1.45;0.90;;;20.70;39.20;;;;;;4953674;28;20050;-67
2021/01/15 07:13:09;;;;;;;1.92;1.27;;;20.70;39.10;;;;;;4953250;28;20043;-71
2021/01/15 07:15:42;;;;;;;1.27;0.82;;;20.70;39.10;;;;;;4954151;28;20042;-67
2021/01/15 07:18:24;;;;;;;1.85;0.80;;;20.70;39.10;;;;;;4953779;28;20035;-68
2021/01/15 07:20:57;;;;;;;1.40;0.70;;;20.70;39.10;;;;;;4954515;28;20476;-67
2021/01/15 07:23:42;;;;;;;1.63;0.80;;;20.70;39.10;;;;;;4953735;28;20043;-68
2021/01/15 07:26:12;;;;;;;1.80;1.05;;;20.70;39.10;;;;;;4953213;28;20122;-68
2021/01/15 07:28:38;;;;;;;1.30;0.80;;;20.70;39.20;;;;;;4954243;28;20023;-67
2021/01/15 07:31:06;;;;;;;1.38;0.65;;;20.70;39.10;;;;;;4952865;28;20027;-70
2021/01/15 07:33:34;;;;;;;1.42;0.90;;;20.70;39.10;;;;;;4965157;28;20031;-67
2021/01/15 07:35:59;;;;;;;2.97;0.90;;;20.70;39.10;;;;;;4973423;28;20471;-67
2021/01/15 07:38:25;;;;;;;2.22;0.98;;;20.70;39.10;;;;;;4971203;28;20023;-67
2021/01/15 07:40:51;;;;;;;1.30;0.77;;;20.70;39.00;;;;;;4967472;28;20033;-67
2021/01/15 07:43:30;;;;;;;2.35;1.00;;;20.70;39.10;;;;;;4934211;29;20035;-67
2021/01/15 07:45:57;;;;;;;1.52;0.95;;;20.70;39.00;;;;;;4934858;29;20119;-67
2021/01/15 07:48:23;;;;;;;1.90;1.00;;;20.70;39.10;;;;;;4933951;29;20041;-68
2021/01/15 07:50:50;;;;;;;0.85;0.68;;;20.70;39.10;;;;;;4945196;29;20542;-67
2021/01/15 07:53:24;;;;;;;1.80;0.88;;;20.70;39.10;;;;;;4945499;28;20038;-67
2021/01/15 07:55:58;;;;;;;2.92;0.95;;;20.70;39.10;;;;;;4952431;28;20094;-68
2021/01/15 07:58:45;;;;;;;2.00;0.90;;;20.70;39.10;;;;;;4950878;29;20684;-67
2021/01/15 08:01:16;;;;;;;2.30;1.10;;;20.70;39.20;;;;;;4952764;28;20027;-67
2021/01/15 08:03:46;;;;;;;1.45;0.85;;;20.80;39.30;;;;;;4953138;28;20377;-68
2021/01/15 08:06:15;;;;;;;3.25;1.00;;;20.80;39.30;;;;;;4952348;28;20043;-68
2021/01/15 08:09:06;;;;;;;1.80;1.05;;;20.80;39.60;;;;;;4953158;28;20747;-66
2021/01/15 08:11:36;;;;;;;2.70;0.95;;;20.80;39.80;;;;;;4952449;28;20031;-67
2021/01/15 08:14:21;;;;;;;2.55;0.82;;;20.80;40.00;;;;;;4950856;29;20118;-67
2021/01/15 08:16:48;;;;;;;3.10;1.25;;;20.80;39.90;;;;;;4953566;28;20039;-67
2021/01/15 08:19:16;;;;;;;1.92;1.27;;;20.90;40.70;;;;;;4954133;28;20038;-67
2021/01/15 08:21:43;;;;;;;1.77;1.17;;;20.80;40.10;;;;;;4956200;28;20496;-68
2021/01/15 08:24:09;;;;;;;2.65;1.30;;;20.80;40.00;;;;;;4952579;28;20110;-68
2021/01/15 08:26:41;;;;;;;1.98;1.00;;;20.80;40.00;;;;;;4952677;28;20034;-67
2021/01/15 08:29:07;;;;;;;2.20;1.55;;;20.80;40.00;;;;;;4952538;29;20093;-69
2021/01/15 08:31:33;;;;;;;1.83;1.23;;;20.80;40.00;;;;;;4951967;28;20114;-68
2021/01/15 08:34:16;;;;;;;2.47;1.23;;;20.80;40.00;;;;;;4948633;28;20023;-65
2021/01/15 08:36:50;;;;;;;2.95;1.17;;;20.80;40.40;;;;;;4950242;28;20034;-67
2021/01/15 08:39:16;;;;;;;1.70;1.15;;;20.80;40.20;;;;;;4952125;29;20032;-67
2021/01/15 08:41:42;;;;;;;1.33;1.10;;;20.80;40.20;;;;;;4944382;28;20389;-69
2021/01/15 08:44:09;;;;;;;3.38;1.27;;;20.70;40.20;;;;;;4951823;28;20043;-63
2021/01/15 08:46:38;;;;;;;3.40;1.30;;;20.80;40.60;;;;;;4949240;29;20027;-63
2021/01/15 08:49:10;;;;;;;2.42;1.10;;;20.80;40.50;;;;;;4951610;28;20035;-64
2021/01/15 08:51:36;;;;;;;4.75;1.30;;;20.90;40.70;;;;;;4955805;28;20039;-63
2021/01/15 08:54:06;;;;;;;3.60;0.77;;;20.90;40.90;;;;;;4951433;28;20036;-65
2021/01/15 08:56:36;;;;;;;3.83;1.30;;;20.90;40.80;;;;;;4953534;28;20169;-66
2021/01/15 08:59:04;;;;;;;3.08;1.23;;;20.90;41.00;;;;;;4951285;28;20496;-67
2021/01/15 09:01:40;;;;;;;5.90;1.50;;;20.90;41.20;;;;;;4954688;28;20599;-63
2021/01/15 09:04:11;;;;;;;5.35;1.15;;;20.90;41.20;;;;;;4953741;28;20042;-71
2021/01/15 09:06:38;;;;;;;2.60;1.10;;;20.90;41.40;;;;;;4954813;28;20035;-66
2021/01/15 09:09:09;;;;;;;3.33;1.40;;;20.90;41.50;;;;;;4957805;28;20117;-69
2021/01/15 09:11:38;;;;;;;3.65;1.17;;;20.90;41.60;;;;;;4952497;28;20392;-68
2021/01/15 09:14:05;;;;;;;2.42;1.30;;;20.90;41.60;;;;;;4959919;28;20031;-66
2021/01/15 09:16:32;;;;;;;2.55;1.15;;;20.90;41.60;;;;;;4957043;28;20028;-68
2021/01/15 09:19:09;;;;;;;4.95;1.23;;;20.90;41.70;;;;;;4953717;28;20028;-67
2021/01/15 09:22:01;;;;;;;3.95;1.60;;;20.90;41.70;;;;;;4954814;28;20055;-69
2021/01/15 09:24:32;;;;;;;3.83;1.27;;;20.90;41.80;;;;;;4953715;28;20039;-67
2021/01/15 09:26:59;;;;;;;3.00;1.30;;;20.90;41.70;;;;;;4953897;29;20062;-68
2021/01/15 09:29:25;;;;;;;4.85;2.00;;;20.90;41.60;;;;;;4954350;28;20027;-67
2021/01/15 09:31:51;;;;;;;3.78;1.35;;;20.90;41.60;;;;;;4953172;28;20057;-69
2021/01/15 09:34:18;;;;;;;2.65;1.38;;;20.90;41.70;;;;;;4954178;28;20046;-68
2021/01/15 09:36:46;;;;;;;3.10;1.38;;;20.90;41.60;;;;;;4954207;28;20027;-67
2021/01/15 09:39:13;;;;;;;4.68;1.30;;;20.90;41.60;;;;;;4950979;28;20114;-68
2021/01/15 09:41:43;;;;;;;2.35;1.50;;;20.90;41.50;;;;;;4954710;28;20027;-69
2021/01/15 09:44:09;;;;;;;2.10;1.48;;;20.90;41.60;;;;;;4953508;28;20489;-70
2021/01/15 09:46:35;;;;;;;4.75;1.90;;;20.90;41.60;;;;;;4952698;28;20031;-69
2021/01/15 09:49:01;;;;;;;1.75;1.13;;;20.90;42.20;;;;;;4955346;28;20031;-68
2021/01/15 09:51:28;;;;;;;2.97;1.33;;;20.90;41.60;;;;;;4955793;28;20620;-68
2021/01/15 09:53:55;;;;;;;1.77;1.30;;;20.90;41.60;;;;;;4953647;28;20057;-68
2021/01/15 09:56:25;;;;;;;4.38;1.40;;;20.90;41.50;;;;;;4952526;29;20046;-67
2021/01/15 09:58:52;;;;;;;4.45;1.35;;;20.90;41.50;;;;;;4947230;28;20106;-68
2021/01/15 10:01:18;;;;;;;3.45;1.58;;;20.90;41.50;;;;;;4955205;28;20050;-69
2021/01/15 10:03:44;;;;;;;2.40;1.45;;;20.90;41.60;;;;;;4952433;28;20385;-68
2021/01/15 10:06:17;;;;;;;3.15;1.77;;;20.90;41.50;;;;;;4950475;28;20031;-70
2021/01/15 10:08:43;;;;;;;3.78;1.60;;;20.90;41.50;;;;;;4950227;28;20035;-68
2021/01/15 10:11:17;;;;;;;3.38;1.55;;;20.90;41.50;;;;;;4955460;28;20028;-67
2021/01/15 10:13:43;;;;;;;3.00;1.50;;;20.90;41.50;;;;;;4951827;29;20035;-67
2021/01/15 10:16:09;;;;;;;4.80;1.55;;;20.90;41.50;;;;;;4952833;29;20047;-68
2021/01/15 10:18:34;;;;;;;4.60;1.70;;;21.00;41.70;;;;;;4952705;28;20035;-67
2021/01/15 10:21:00;;;;;;;5.03;1.77;;;20.90;41.80;;;;;;4952418;28;20066;-67
2021/01/15 10:23:25;;;;;;;3.60;1.63;;;21.00;41.90;;;;;;4948451;28;20050;-66
2021/01/15 10:25:51;;;;;;;2.58;1.45;;;21.00;41.80;;;;;;4942511;28;20035;-67
2021/01/15 10:28:17;;;;;;;8.13;1.88;;;20.90;41.70;;;;;;4952500;28;20038;-66
2021/01/15 10:30:47;;;;;;;5.15;2.33;;;21.00;41.70;;;;;;4953083;29;20027;-66
2021/01/15 10:33:13;;;;;;;4.68;1.63;;;20.90;41.50;;;;;;4953704;28;20053;-66
2021/01/15 10:35:39;;;;;;;4.28;2.08;;;20.90;41.50;;;;;;4951219;29;20039;-66
2021/01/15 10:38:05;;;;;;;1.90;1.13;;;20.90;41.40;;;;;;4952344;28;20086;-67
2021/01/15 10:40:31;;;;;;;3.92;1.80;;;20.90;41.60;;;;;;4952287;28;20880;-64
2021/01/15 10:42:56;;;;;;;2.97;1.73;;;20.90;41.80;;;;;;4952307;28;20118;-64
2021/01/15 10:45:22;;;;;;;3.20;1.63;;;20.90;41.70;;;;;;4949793;29;20031;-66
2021/01/15 10:47:48;;;;;;;3.50;1.80;;;20.90;41.60;;;;;;4952080;29;20074;-65
2021/01/15 10:50:15;;;;;;;5.70;2.00;;;20.90;41.50;;;;;;4949970;28;20035;-66
2021/01/15 10:52:41;;;;;;;5.30;1.83;;;20.90;41.70;;;;;;4954042;28;20350;-69
2021/01/15 10:55:07;;;;;;;5.80;1.60;;;20.90;41.70;;;;;;4951839;28;20102;-65
2021/01/15 10:57:33;;;;;;;3.70;1.20;;;20.90;41.80;;;;;;4951388;28;20054;-65
2021/01/15 10:59:59;;;;;;;5.93;1.50;;;21.00;42.00;;;;;;4952395;29;20465;-64
2021/01/15 11:02:24;;;;;;;3.83;1.48;;;21.00;41.80;;;;;;4950005;28;20027;-64
2021/01/15 11:04:50;;;;;;;5.15;1.80;;;20.90;42.40;;;;;;4950315;29;20046;-64
2021/01/15 11:07:16;;;;;;;4.13;1.60;;;21.00;41.90;;;;;;4951108;29;20059;-63
2021/01/15 11:09:41;;;;;;;3.33;1.70;;;21.00;41.80;;;;;;4951614;29;20046;-64
2021/01/15 11:12:08;;;;;;;2.42;1.35;;;20.90;41.80;;;;;;4951800;29;20055;-65
2021/01/15 11:14:35;;;;;;;7.20;1.80;;;20.90;41.90;;;;;;4950531;28;20135;-63
2021/01/15 11:17:01;;;;;;;3.28;1.65;;;20.90;41.90;;;;;;4953515;28;20036;-63
2021/01/15 11:19:27;;;;;;;3.35;1.58;;;20.90;42.00;;;;;;4950068;29;20550;-63
2021/01/15 11:21:52;;;;;;;6.25;2.45;;;20.90;42.10;;;;;;4955591;28;20028;-63
2021/01/15 11:24:18;;;;;;;3.90;1.90;;;20.90;42.20;;;;;;4952235;29;20098;-63
2021/01/15 11:26:44;;;;;;;5.57;1.83;;;20.90;42.10;;;;;;4953452;28;20110;-65
2021/01/15 11:29:10;;;;;;;3.53;1.65;;;20.90;42.30;;;;;;4953399;28;20089;-63
2021/01/15 11:31:40;;;;;;;5.22;1.75;;;20.90;42.50;;;;;;4953761;28;20027;-63
2021/01/15 11:34:06;;;;;;;6.90;2.10;;;20.90;42.50;;;;;;4959626;28;20031;-63
2021/01/15 11:36:31;;;;;;;4.25;1.55;;;20.90;42.60;;;;;;4952609;28;20042;-61
2021/01/15 11:38:58;;;;;;;4.95;1.83;;;20.90;42.60;;;;;;4953468;28;20067;-61
2021/01/15 11:41:24;;;;;;;4.13;1.98;;;20.90;42.60;;;;;;4952955;28;20042;-64
2021/01/15 11:43:50;;;;;;;7.53;1.75;;;20.90;42.60;;;;;;4953735;28;20098;-65
2021/01/15 11:46:16;;;;;;;7.78;1.83;;;20.90;42.70;;;;;;4952722;29;20023;-66
2021/01/15 11:48:41;;;;;;;6.22;2.33;;;20.90;42.50;;;;;;4966570;28;20038;-65
2021/01/15 11:51:10;;;;;;;7.40;1.92;;;20.90;42.50;;;;;;4971422;28;20041;-63
2021/01/15 11:53:39;;;;;;;7.50;1.73;;;20.90;42.60;;;;;;4953258;28;20027;-66
2021/01/15 11:56:06;;;;;;;6.50;2.00;;;20.90;42.70;;;;;;4953247;28;20039;-67
2021/01/15 11:58:32;;;;;;;6.65;2.33;;;20.90;42.80;;;;;;4952190;28;20445;-68
2021/01/15 12:00:58;;;;;;;10.82;2.13;;;20.90;43.20;;;;;;4953769;28;20028;-67
2021/01/15 12:03:25;;;;;;;6.90;2.03;;;21.00;43.40;;;;;;4952758;28;20035;-65
2021/01/15 12:05:51;;;;;;;4.97;1.70;;;21.00;43.40;;;;;;4955040;28;20046;-65
2021/01/15 12:08:19;;;;;;;12.25;1.90;;;20.90;43.20;;;;;;4956628;28;20039;-66
2021/01/15 12:10:48;;;;;;;4.18;2.28;;;20.90;43.30;;;;;;4953632;28;20031;-64
2021/01/15 12:13:13;;;;;;;6.18;2.10;;;20.90;43.10;;;;;;4952604;28;20039;-65
2021/01/15 12:15:39;;;;;;;6.28;2.30;;;20.90;43.10;;;;;;4952918;29;20040;-64
2021/01/15 12:18:05;;;;;;;8.93;2.10;;;20.90;43.20;;;;;;4951310;28;20115;-64
2021/01/15 12:20:37;;;;;;;9.43;2.20;;;20.90;43.00;;;;;;4952099;28;20039;-64
2021/01/15 12:23:03;;;;;;;6.63;2.10;;;20.90;42.90;;;;;;4970149;28;20085;-64
2021/01/15 12:25:29;;;;;;;10.18;2.20;;;20.90;42.80;;;;;;4967240;28;20055;-64
2021/01/15 12:27:55;;;;;;;6.13;1.95;;;20.90;42.80;;;;;;4957231;28;20041;-64
2021/01/15 12:30:21;;;;;;;6.72;2.05;;;20.90;42.70;;;;;;4955536;28;20032;-64
2021/01/15 12:32:48;;;;;;;4.85;1.70;;;20.80;42.60;;;;;;4956742;28;20464;-64
2021/01/15 12:35:14;;;;;;;5.43;2.40;;;20.80;42.60;;;;;;4955323;28;20420;-66
2021/01/15 12:37:39;;;;;;;5.68;1.80;;;20.80;42.60;;;;;;4956590;28;20078;-65
2021/01/15 12:40:07;;;;;;;4.90;2.08;;;20.80;42.50;;;;;;4955198;29;20032;-65
2021/01/15 12:42:33;;;;;;;6.90;1.77;;;20.80;42.50;;;;;;4955890;28;20042;-65
2021/01/15 12:44:58;;;;;;;6.68;1.88;;;20.80;42.40;;;;;;4957125;29;20357;-65
2021/01/15 12:47:24;;;;;;;6.55;1.90;;;20.80;42.40;;;;;;4955663;29;20379;-66
2021/01/15 12:49:50;;;;;;;4.22;1.73;;;20.80;42.30;;;;;;4967327;28;20039;-66
2021/01/15 12:52:19;;;;;;;2.72;1.85;;;20.80;42.30;;;;;;4964020;28;20035;-66
2021/01/15 12:54:45;;;;;;;4.75;1.70;;;20.80;42.30;;;;;;4956172;28;20377;-65